Time;durP1;ratioP1;P1;durP2;ratioP2;P2;SDS_P1;SDS_P2;PMS_P1;PMS_P2;Temp;Humidity;BMP_temperature;BMP_pressure;BME280_temperature;BME280_humidity;BME280_pressure;Samples;Min_cycle;Max_cycle;Signal;HPM_P1;HPM_P2
2023/12/19 00:02:05;;;;;;;7.70;4.53;;;;;;;0.47;79.24;94051.59;2055351;69;20154;-86
2023/12/19 00:04:33;;;;;;;7.50;4.10;;;;;;;0.50;79.15;94056.09;2055251;69;20158;-85
2023/12/19 00:06:59;;;;;;;9.73;4.30;;;;;;;0.54;78.43;94059.34;2053084;70;20189;-83
2023/12/19 00:09:25;;;;;;;8.10;4.07;;;;;;;0.55;78.24;94057.34;2055031;69;20582;-85
2023/12/19 00:11:51;;;;;;;221.23;59.30;;;;;;;0.71;79.17;94054.47;2053273;69;20232;-84
2023/12/19 00:14:16;;;;;;;14.48;6.63;;;;;;;0.46;78.75;94063.97;2052080;69;20693;-85
2023/12/19 00:16:42;;;;;;;10.60;4.82;;;;;;;0.54;78.18;94075.25;2054875;69;20172;-82
2023/12/19 00:19:09;;;;;;;10.30;4.65;;;;;;;0.56;78.41;94073.47;2054414;70;20157;-83
2023/12/19 00:21:35;;;;;;;6.72;3.33;;;;;;;0.61;78.27;94058.81;2053524;69;20151;-82
2023/12/19 00:24:01;;;;;;;6.53;3.83;;;;;;;0.66;77.69;94055.25;2051728;70;20157;-81
2023/12/19 00:26:27;;;;;;;6.95;3.42;;;;;;;0.68;78.34;94054.75;2053493;69;20178;-87
2023/12/19 00:28:53;;;;;;;7.05;3.60;;;;;;;0.67;77.61;94051.22;2056882;69;20570;-86
2023/12/19 00:31:20;;;;;;;6.53;3.30;;;;;;;0.70;77.63;94046.69;2054355;69;20221;-85
2023/12/19 00:33:46;;;;;;;7.03;3.40;;;;;;;0.72;76.98;94052.44;2053295;69;20222;-84
2023/12/19 00:36:22;;;;;;;5.68;3.10;;;;;;;0.61;76.95;94039.44;2052337;70;20187;-85
2023/12/19 00:38:48;;;;;;;6.05;3.08;;;;;;;0.71;76.74;94040.63;2054564;69;20152;-85
2023/12/19 00:41:14;;;;;;;5.80;3.30;;;;;;;0.38;78.09;94036.03;2054148;69;20162;-84
2023/12/19 00:43:45;;;;;;;7.20;3.70;;;;;;;0.37;78.22;94023.44;2054199;70;20201;-84
2023/12/19 00:46:12;;;;;;;8.40;3.70;;;;;;;0.52;77.70;94038.97;2054529;70;20181;-86
2023/12/19 00:48:38;;;;;;;7.10;3.85;;;;;;;0.63;77.72;94042.41;2052711;69;20253;-86
2023/12/19 00:51:11;;;;;;;8.55;3.15;;;;;;;0.55;79.14;94041.50;2050825;70;20534;-87
2023/12/19 00:53:37;;;;;;;6.53;2.65;;;;;;;0.69;78.43;94036.88;2054406;70;20677;-87
2023/12/19 00:56:07;;;;;;;7.63;3.58;;;;;;;0.25;78.86;94042.13;2054786;70;20237;-87
2023/12/19 00:58:33;;;;;;;7.63;4.43;;;;;;;0.40;78.80;94036.25;2054088;69;20212;-86
2023/12/19 01:00:59;;;;;;;7.55;3.47;;;;;;;0.52;78.71;94038.97;2051487;70;20162;-85
2023/12/19 01:03:25;;;;;;;7.20;4.40;;;;;;;0.47;77.86;94037.75;2051730;70;20602;-84
2023/12/19 01:05:51;;;;;;;8.00;4.20;;;;;;;0.56;77.85;94043.00;2053629;70;20197;-82
2023/12/19 01:08:17;;;;;;;6.15;4.00;;;;;;;0.33;78.04;94050.66;2052343;70;20229;-85
2023/12/19 01:10:43;;;;;;;7.88;3.50;;;;;;;0.28;78.50;94050.72;2054728;69;20146;-86
2023/12/19 01:13:08;;;;;;;6.90;3.70;;;;;;;0.47;78.16;94049.59;2054064;70;20622;-84
2023/12/19 01:15:34;;;;;;;7.28;3.90;;;;;;;0.46;78.00;94064.72;2053776;70;20204;-84
2023/12/19 01:18:00;;;;;;;7.07;3.42;;;;;;;0.30;78.56;94071.06;2052395;70;20157;-85
2023/12/19 01:20:26;;;;;;;7.07;3.40;;;;;;;0.36;78.26;94065.50;2051522;69;20153;-83
2023/12/19 01:22:52;;;;;;;6.60;3.42;;;;;;;0.49;78.01;94060.16;2051799;70;20188;-84
2023/12/19 01:25:18;;;;;;;6.78;3.50;;;;;;;0.44;77.76;94072.75;2052774;69;20170;-84
2023/12/19 01:27:43;;;;;;;7.10;3.35;;;;;;;0.37;77.32;94073.31;2052951;70;20198;-84
2023/12/19 01:30:11;;;;;;;6.93;3.42;;;;;;;0.36;77.16;94069.03;2054026;70;20134;-83
2023/12/19 01:32:36;;;;;;;7.93;3.42;;;;;;;0.35;77.18;94067.53;2054480;69;20601;-83
2023/12/19 01:35:02;;;;;;;6.55;2.85;;;;;;;0.32;77.54;94057.47;2054456;69;20617;-81
2023/12/19 01:37:29;;;;;;;4.68;3.00;;;;;;;0.37;77.71;94056.69;2053154;70;20182;-83
2023/12/19 01:39:57;;;;;;;8.88;3.75;;;;;;;-0.01;78.92;94061.88;2048124;70;20158;-84
2023/12/19 01:42:24;;;;;;;8.52;3.60;;;;;;;0.13;78.00;94053.78;2051448;69;20541;-83
2023/12/19 01:45:12;;;;;;;5.32;3.35;;;;;;;0.20;77.37;94064.34;2052653;70;20209;-81
2023/12/19 01:47:44;;;;;;;6.55;3.22;;;;;;;0.30;77.37;94051.69;2052005;70;20217;-81
2023/12/19 01:50:15;;;;;;;5.55;3.00;;;;;;;0.22;77.35;94042.41;2052981;69;20510;-81
2023/12/19 01:52:53;;;;;;;4.72;2.95;;;;;;;0.27;78.25;94036.06;2049884;70;20158;-86
2023/12/19 01:55:21;;;;;;;5.10;2.92;;;;;;;0.24;78.10;94031.59;2056333;69;20157;-84
2023/12/19 01:57:47;;;;;;;5.95;3.15;;;;;;;-0.07;79.07;94018.88;2051744;70;20162;-82
2023/12/19 02:00:14;;;;;;;7.90;3.42;;;;;;;-0.29;79.39;94022.47;2051585;70;20530;-84
2023/12/19 02:02:44;;;;;;;6.50;2.85;;;;;;;-0.08;78.73;94015.34;2051397;70;20143;-84
2023/12/19 02:05:13;;;;;;;4.95;2.90;;;;;;;0.01;78.68;94017.09;2052474;70;20163;-83
2023/12/19 02:07:40;;;;;;;5.85;2.60;;;;;;;-0.17;79.68;94006.59;2052066;70;20195;-82
2023/12/19 02:10:07;;;;;;;6.30;2.85;;;;;;;-0.08;78.96;94009.06;2052759;70;20154;-83
2023/12/19 02:12:32;;;;;;;5.43;3.53;;;;;;;-0.23;79.02;94014.16;2052173;70;20157;-82
2023/12/19 02:14:59;;;;;;;4.65;2.70;;;;;;;-0.14;79.26;94013.88;2053237;69;20208;-82
2023/12/19 02:17:28;;;;;;;6.40;2.72;;;;;;;-0.16;80.35;94008.09;2051775;70;20265;-80
2023/12/19 02:19:54;;;;;;;8.52;4.00;;;;;;;-0.51;81.34;94012.97;2052943;69;20541;-80
2023/12/19 02:22:20;;;;;;;6.20;3.70;;;;;;;-0.28;80.36;94016.41;2052955;70;20618;-82
2023/12/19 02:24:46;;;;;;;5.43;2.72;;;;;;;-0.24;79.60;94005.09;2052013;70;20568;-82
2023/12/19 02:27:15;;;;;;;4.43;2.72;;;;;;;0.00;78.81;94004.50;2052586;70;20253;-84
2023/12/19 02:29:41;;;;;;;5.45;2.42;;;;;;;0.14;79.78;93995.13;2052881;69;20201;-84
2023/12/19 02:32:06;;;;;;;6.65;2.92;;;;;;;-0.11;79.40;94010.84;2049348;70;20155;-86
2023/12/19 02:34:33;;;;;;;7.28;3.10;;;;;;;-0.19;79.89;94007.09;2049848;70;20150;-85
2023/12/19 02:36:58;;;;;;;5.32;3.05;;;;;;;-0.08;78.70;94014.59;2055045;70;20170;-85
2023/12/19 02:39:24;;;;;;;4.90;2.60;;;;;;;-0.03;79.04;94025.66;2055840;69;20145;-86
2023/12/19 02:41:50;;;;;;;5.35;3.40;;;;;;;0.07;78.79;94030.91;2055415;70;20135;-85
2023/12/19 02:44:15;;;;;;;10.20;4.95;;;;;;;-0.14;78.92;94020.16;2053692;70;20515;-86
2023/12/19 02:46:44;;;;;;;7.55;4.18;;;;;;;-0.03;78.65;94031.19;2054769;69;20561;-85
2023/12/19 02:49:09;;;;;;;9.18;3.95;;;;;;;-0.17;78.73;93996.28;2054036;70;20196;-84
2023/12/19 02:51:35;;;;;;;7.75;3.70;;;;;;;0.05;79.00;94023.13;2055227;70;20166;-85
2023/12/19 02:54:02;;;;;;;5.90;3.17;;;;;;;-0.43;80.21;94021.50;2056079;70;20269;-85
2023/12/19 02:56:28;;;;;;;7.63;3.72;;;;;;;-0.32;80.01;94031.78;2056101;69;20149;-84
2023/12/19 02:58:54;;;;;;;5.65;2.92;;;;;;;-0.21;79.17;94028.25;2054119;69;20146;-83
2023/12/19 03:01:19;;;;;;;7.75;3.83;;;;;;;-0.17;78.55;94018.41;2056156;69;20187;-81
2023/12/19 03:03:45;;;;;;;7.38;3.53;;;;;;;-0.42;80.10;94028.53;2057962;69;20146;-81
2023/12/19 03:06:14;;;;;;;7.72;4.07;;;;;;;-0.42;79.47;94020.25;2054695;69;20503;-87
2023/12/19 03:08:45;;;;;;;8.90;4.43;;;;;;;-0.30;78.62;94032.78;2052797;70;20139;-85
2023/12/19 03:11:11;;;;;;;8.05;3.80;;;;;;;-0.40;78.97;94022.53;2054795;70;20208;-85
2023/12/19 03:13:37;;;;;;;7.80;3.78;;;;;;;-0.28;78.53;94019.19;2054314;69;20601;-81
2023/12/19 03:16:02;;;;;;;12.18;5.28;;;;;;;-0.48;79.02;94011.22;2054196;69;20191;-81
2023/12/19 03:18:28;;;;;;;6.55;3.40;;;;;;;-0.36;78.96;94003.66;2053867;70;20190;-81
2023/12/19 03:20:54;;;;;;;4.68;2.92;;;;;;;-0.28;79.53;93982.47;2055323;70;20184;-85
2023/12/19 03:23:21;;;;;;;3.33;2.13;;;;;;;-0.31;79.53;93989.78;2052376;70;20224;-85
2023/12/19 03:25:47;;;;;;;2.33;1.40;;;;;;;-0.11;80.39;93957.47;2053086;70;20148;-85
2023/12/19 03:28:13;;;;;;;2.83;2.03;;;;;;;-0.39;80.59;93963.16;2051054;70;20150;-85
2023/12/19 03:30:39;;;;;;;3.60;2.50;;;;;;;-0.27;80.85;93965.38;2053524;69;20603;-82
2023/12/19 03:33:06;;;;;;;5.45;2.92;;;;;;;-0.43;80.41;93965.41;2054765;70;20160;-85
2023/12/19 03:35:32;;;;;;;4.57;2.00;;;;;;;0.03;80.61;93963.97;2054802;70;20277;-84
2023/12/19 03:37:59;;;;;;;7.30;2.97;;;;;;;-0.18;80.58;93978.16;2051738;70;20625;-85
2023/12/19 03:40:25;;;;;;;6.80;3.08;;;;;;;-0.21;80.07;93979.19;2052344;69;20233;-86
2023/12/19 03:42:50;;;;;;;5.15;2.90;;;;;;;-0.31;80.31;93980.72;2053858;69;20153;-86
2023/12/19 03:45:16;;;;;;;5.70;3.10;;;;;;;-0.42;80.38;93994.59;2052084;70;20150;-86
2023/12/19 03:47:42;;;;;;;6.28;2.95;;;;;;;-0.38;80.77;93987.53;2051949;70;20162;-85
2023/12/19 03:50:08;;;;;;;5.38;2.72;;;;;;;-0.21;80.18;93993.00;2051934;70;20574;-83
2023/12/19 03:52:35;;;;;;;6.93;2.80;;;;;;;-0.14;79.85;93983.41;2052269;69;20174;-85
2023/12/19 03:55:01;;;;;;;5.18;2.47;;;;;;;0.02;79.64;93976.31;2054209;70;20614;-84
2023/12/19 03:57:27;;;;;;;3.83;2.20;;;;;;;-0.18;79.31;93971.84;2052797;69;20170;-86
2023/12/19 03:59:53;;;;;;;18.40;9.60;;;;;;;0.15;80.33;93968.19;2053044;69;20624;-86
2023/12/19 04:02:19;;;;;;;4.72;2.88;;;;;;;-0.52;80.52;93960.91;2051059;70;20151;-87
2023/12/19 04:04:45;;;;;;;4.55;2.63;;;;;;;-0.43;80.52;93955.09;2054466;70;20142;-85
2023/12/19 04:07:10;;;;;;;6.22;3.13;;;;;;;-0.13;79.45;93951.72;2055411;69;20177;-83
2023/12/19 04:09:37;;;;;;;4.68;2.72;;;;;;;-0.16;79.49;93952.72;2053203;70;20174;-84
2023/12/19 04:12:03;;;;;;;5.40;2.90;;;;;;;-0.13;78.36;93958.00;2052025;70;20234;-89
2023/12/19 04:14:30;;;;;;;3.95;2.63;;;;;;;-0.21;78.56;93939.69;2054982;70;20197;-85
2023/12/19 04:16:57;;;;;;;5.07;2.97;;;;;;;-0.02;78.83;93954.41;2055440;70;20282;-85
2023/12/19 04:19:23;;;;;;;3.95;2.40;;;;;;;0.05;79.19;93931.72;2054367;69;20241;-86
2023/12/19 04:21:50;;;;;;;4.43;2.55;;;;;;;-0.21;79.07;93929.34;2053449;70;20223;-84
2023/12/19 04:24:16;;;;;;;6.68;3.00;;;;;;;-0.61;80.87;93936.31;2054102;70;20596;-89
2023/12/19 04:26:46;;;;;;;4.88;3.33;;;;;;;-0.47;80.81;93940.78;2055045;69;20265;-84
2023/12/19 04:29:12;;;;;;;8.63;3.13;;;;;;;-0.30;80.03;93944.25;2055281;69;20186;-85
2023/12/19 04:31:39;;;;;;;4.32;2.95;;;;;;;-0.22;79.78;93932.63;2051814;69;20164;-89
2023/12/19 04:34:05;;;;;;;4.93;2.60;;;;;;;-0.15;79.32;93937.63;2052847;70;20189;-87
2023/12/19 04:36:46;;;;;;;4.03;2.40;;;;;;;-0.06;78.73;93934.56;2054321;69;20158;-87
2023/12/19 04:39:15;;;;;;;12.38;6.20;;;;;;;-0.18;79.70;93933.88;2051638;70;20146;-88
2023/12/19 04:41:41;;;;;;;7.68;3.90;;;;;;;-0.31;79.63;93933.69;2052828;70;20134;-89
2023/12/19 04:44:06;;;;;;;9.00;4.10;;;;;;;-0.21;78.93;93929.34;2051661;69;20184;-86
2023/12/19 04:46:32;;;;;;;8.70;4.25;;;;;;;-0.17;79.02;93916.00;2051717;70;20150;-84
2023/12/19 04:49:01;;;;;;;4.97;3.40;;;;;;;-0.12;78.61;93931.06;2054527;70;20138;-86
2023/12/19 04:51:28;;;;;;;6.95;3.72;;;;;;;-0.36;80.57;93920.63;2054567;69;20316;-88
2023/12/19 04:53:56;;;;;;;7.35;4.50;;;;;;;-0.41;80.24;93949.06;2051952;69;20252;-87
2023/12/19 04:56:21;;;;;;;7.35;3.97;;;;;;;-0.49;80.38;93939.81;2053767;69;20212;-89
2023/12/19 04:58:48;;;;;;;13.68;5.32;;;;;;;-0.43;79.98;93916.38;2052154;69;20189;-86
2023/12/19 05:01:16;;;;;;;11.93;5.18;;;;;;;-0.28;78.64;93927.84;2051770;70;20158;-85
2023/12/19 05:03:42;;;;;;;13.13;6.15;;;;;;;-0.42;79.41;93939.25;2048158;70;20195;-87
2023/12/19 05:06:08;;;;;;;15.50;6.78;;;;;;;-0.39;79.09;93939.00;2051948;70;20191;-86
2023/12/19 05:08:36;;;;;;;15.15;5.90;;;;;;;-0.38;78.95;93923.88;2051692;70;20610;-87
2023/12/19 05:11:04;;;;;;;15.10;7.05;;;;;;;-0.27;78.73;93912.78;2054321;70;20699;-89
2023/12/19 05:13:29;;;;;;;9.43;4.78;;;;;;;-0.56;80.75;93897.56;2053472;70;20231;-88
2023/12/19 05:15:55;;;;;;;12.65;5.90;;;;;;;-0.56;81.12;93894.78;2054934;69;20138;-88
2023/12/19 05:18:26;;;;;;;13.05;6.60;;;;;;;-0.43;79.98;93880.41;2049090;70;20507;-86
2023/12/19 05:20:53;;;;;;;14.27;6.80;;;;;;;-0.39;78.95;93874.59;2052555;69;20245;-88
2023/12/19 05:23:19;;;;;;;18.48;8.00;;;;;;;-0.34;78.92;93890.41;2051831;70;20217;-84
2023/12/19 05:25:45;;;;;;;20.95;9.30;;;;;;;-0.37;79.77;93889.41;2052652;70;20158;-87
2023/12/19 05:28:11;;;;;;;23.05;11.32;;;;;;;-0.57;79.73;93885.00;2049927;70;20174;-87
2023/12/19 05:30:37;;;;;;;19.35;9.52;;;;;;;-0.45;79.25;93880.16;2053232;70;20553;-85
2023/12/19 05:33:03;;;;;;;14.63;7.72;;;;;;;-0.85;79.56;93892.66;2053839;69;20189;-83
2023/12/19 05:35:29;;;;;;;16.85;8.10;;;;;;;-0.89;81.17;93886.63;2053351;70;20165;-87
2023/12/19 05:37:55;;;;;;;14.82;7.90;;;;;;;-0.88;80.58;93893.66;2054833;69;20173;-87
2023/12/19 05:40:21;;;;;;;15.13;7.32;;;;;;;-0.80;79.94;93894.66;2051303;70;20530;-87
2023/12/19 05:42:47;;;;;;;16.98;7.65;;;;;;;-0.70;79.30;93892.34;2052670;70;20269;-83
2023/12/19 05:45:13;;;;;;;12.43;7.07;;;;;;;-0.68;79.30;93892.59;2052240;69;20602;-87
2023/12/19 05:50:38;;;;;;;12.30;6.60;;;;;;;-0.93;82.49;93889.66;2051420;70;20202;-85
2023/12/19 05:53:05;;;;;;;;;;;;;;;-0.74;80.82;93894.63;2046526;70;20155;-88
2023/12/19 05:55:30;;;;;;;14.73;8.15;;;;;;;-0.68;79.89;93895.38;2048536;70;20062;-84
2023/12/19 05:57:56;;;;;;;11.63;6.43;;;;;;;-0.68;80.65;93882.28;2048230;70;20606;-85
2023/12/19 06:00:22;;;;;;;12.25;6.32;;;;;;;-0.59;79.84;93890.28;2045966;70;20147;-86
2023/12/19 06:02:50;;;;;;;17.98;7.85;;;;;;;-0.86;80.57;93893.91;2047853;69;20170;-85
2023/12/19 06:05:17;;;;;;;14.77;8.55;;;;;;;-1.17;82.17;93892.97;2046613;70;20208;-82
2023/12/19 06:07:43;;;;;;;14.25;8.65;;;;;;;-0.84;81.43;93900.44;2046552;70;20194;-81
2023/12/19 06:10:10;;;;;;;15.15;8.70;;;;;;;-0.76;80.44;93886.84;2047078;70;20139;-84
2023/12/19 06:12:37;;;;;;;13.02;7.68;;;;;;;-0.70;80.14;93890.31;2047862;70;20159;-83
2023/12/19 06:15:08;;;;;;;14.57;7.95;;;;;;;-0.72;79.57;93883.81;2046944;70;20147;-81
2023/12/19 06:17:40;;;;;;;14.98;8.13;;;;;;;-0.74;80.06;93883.56;2047732;70;20214;-82
2023/12/19 06:20:06;;;;;;;21.45;10.38;;;;;;;-0.67;80.27;93877.50;2047831;70;20178;-85
2023/12/19 06:22:32;;;;;;;17.17;9.55;;;;;;;-0.62;80.28;93880.25;2066156;64;20706;-81
2023/12/19 06:24:58;;;;;;;15.55;8.90;;;;;;;-0.52;79.67;93883.47;2052976;69;20146;-82
2023/12/19 06:27:24;;;;;;;20.35;10.52;;;;;;;-1.08;82.73;93895.47;2054756;69;20680;-85
2023/12/19 06:29:49;;;;;;;14.40;8.27;;;;;;;-0.85;81.86;93896.16;2051482;70;20197;-85
2023/12/19 06:32:15;;;;;;;21.48;12.23;;;;;;;-1.11;81.42;93890.94;2053969;69;20166;-81
2023/12/19 06:34:40;;;;;;;28.15;12.98;;;;;;;-1.32;81.87;93889.75;2053924;69;20176;-86
2023/12/19 06:37:06;;;;;;;26.83;12.95;;;;;;;-1.17;82.30;93895.00;2056723;69;20146;-88
2023/12/19 06:39:32;;;;;;;25.33;12.63;;;;;;;-1.22;81.07;93893.75;2054655;69;20487;-86
2023/12/19 06:41:57;;;;;;;25.60;12.32;;;;;;;-0.98;80.58;93884.91;2053872;70;20152;-84
2023/12/19 06:44:23;;;;;;;24.27;12.30;;;;;;;-0.98;80.86;93887.66;2053535;70;20213;-88
2023/12/19 06:46:52;;;;;;;36.95;17.35;;;;;;;-0.92;81.58;93884.88;2054174;70;20138;-83
2023/12/19 06:49:21;;;;;;;71.60;28.70;;;;;;;-0.93;82.50;93884.13;2054051;70;20584;-88
2023/12/19 06:51:47;;;;;;;62.42;24.52;;;;;;;-0.85;82.16;93889.88;2054951;69;20150;-87
2023/12/19 06:54:13;;;;;;;55.58;22.40;;;;;;;-0.80;80.99;93892.63;2054177;69;20204;-89
2023/12/19 06:56:39;;;;;;;40.40;17.73;;;;;;;-0.73;80.36;93874.00;2054529;70;20146;-83
2023/12/19 06:59:08;;;;;;;23.17;10.93;;;;;;;-0.91;81.78;93884.38;2055112;69;20152;-79
2023/12/19 07:01:35;;;;;;;144.10;44.83;;;;;;;-0.67;81.39;93878.25;2051688;70;20142;-89
2023/12/19 07:04:01;;;;;;;139.35;46.83;;;;;;;-0.65;80.71;93878.47;2056183;69;20221;-88
2023/12/19 07:06:27;;;;;;;126.32;54.20;;;;;;;-0.60;81.31;93871.44;2056810;69;20150;-89
2023/12/19 07:08:52;;;;;;;128.60;47.53;;;;;;;-0.42;81.97;93867.31;2054107;70;20252;-88
2023/12/19 07:11:20;;;;;;;99.90;37.67;;;;;;;-0.39;81.14;93844.91;2054991;70;20160;-89
2023/12/19 07:13:46;;;;;;;118.65;49.05;;;;;;;-0.46;81.49;93841.94;2057164;69;20240;-88
2023/12/19 07:16:17;;;;;;;82.68;31.00;;;;;;;-0.45;80.58;93860.06;2054063;69;20150;-81
2023/12/19 07:18:43;;;;;;;39.95;18.27;;;;;;;-0.65;81.72;93845.28;2053862;69;20181;-87
2023/12/19 07:21:23;;;;;;;42.95;17.50;;;;;;;-0.51;80.49;93857.28;2054671;69;20145;-84
2023/12/19 07:23:53;;;;;;;38.38;15.30;;;;;;;-0.62;80.66;93863.66;2053756;69;20150;-83
2023/12/19 07:26:20;;;;;;;40.15;15.82;;;;;;;-0.68;80.70;93856.66;2054797;69;20142;-86
2023/12/19 07:28:45;;;;;;;36.17;15.95;;;;;;;-0.64;81.19;93854.34;2054123;69;20558;-81
2023/12/19 07:31:25;;;;;;;33.63;14.52;;;;;;;-0.69;80.86;93861.41;2055028;69;20188;-85
2023/12/19 07:33:56;;;;;;;34.45;15.43;;;;;;;-0.66;80.76;93867.94;2053985;69;20172;-84
2023/12/19 07:36:23;;;;;;;37.03;15.65;;;;;;;-0.60;80.56;93871.44;2053302;69;20138;-86
2023/12/19 07:38:50;;;;;;;41.33;18.02;;;;;;;-0.65;80.42;93872.94;2054886;69;20153;-83
2023/12/19 07:41:15;;;;;;;39.58;17.55;;;;;;;-0.48;79.68;93866.59;2054462;70;20673;-80
2023/12/19 07:43:41;;;;;;;53.03;23.83;;;;;;;-0.68;80.04;93857.41;2055517;69;20246;-80
2023/12/19 07:46:07;;;;;;;55.17;22.77;;;;;;;-0.56;80.02;93871.91;2055405;69;20158;-89
2023/12/19 07:48:33;;;;;;;45.47;20.35;;;;;;;-0.46;79.55;93864.81;2054718;70;20182;-86
2023/12/19 07:50:59;;;;;;;47.47;20.40;;;;;;;-0.51;79.58;93863.56;2054784;70;20177;-80
2023/12/19 07:53:26;;;;;;;21.75;10.18;;;;;;;-0.41;80.47;93869.59;2054610;69;20236;-83
2023/12/19 07:55:52;;;;;;;34.80;16.60;;;;;;;-0.48;80.41;93861.06;2055137;69;20174;-83
2023/12/19 07:58:18;;;;;;;26.17;13.43;;;;;;;-0.42;80.17;93865.28;2055100;69;20146;-81
2023/12/19 08:00:44;;;;;;;26.67;13.30;;;;;;;-0.42;80.12;93859.75;2054917;69;20181;-80
2023/12/19 08:03:10;;;;;;;27.75;14.02;;;;;;;-0.39;80.05;93861.53;2054356;70;20677;-83
2023/12/19 08:05:36;;;;;;;22.60;10.95;;;;;;;-0.22;80.21;93868.97;2054819;69;20153;-83
2023/12/19 08:08:03;;;;;;;18.17;9.50;;;;;;;-0.09;79.80;93869.91;2054751;70;20624;-80
2023/12/19 08:10:29;;;;;;;21.23;11.25;;;;;;;-0.15;80.02;93868.41;2053974;69;20617;-82
2023/12/19 08:12:54;;;;;;;27.55;14.70;;;;;;;-0.17;80.07;93871.72;2053302;70;20213;-81
2023/12/19 08:15:21;;;;;;;27.42;13.38;;;;;;;-0.13;79.37;93877.72;2054001;70;20256;-82
2023/12/19 08:17:47;;;;;;;25.77;13.13;;;;;;;-0.11;78.95;93877.22;2054487;69;20563;-85
2023/12/19 08:20:15;;;;;;;26.25;13.02;;;;;;;-0.12;79.02;93872.94;2053545;70;20146;-80
2023/12/19 08:22:44;;;;;;;23.30;13.02;;;;;;;-0.08;78.76;93865.88;2053711;70;20166;-84
2023/12/19 08:25:10;;;;;;;31.50;15.55;;;;;;;-0.51;80.12;93873.91;2054579;69;20161;-84
2023/12/19 08:27:36;;;;;;;30.45;16.38;;;;;;;-0.32;80.35;93882.34;2054222;69;20627;-84
2023/12/19 08:30:03;;;;;;;31.65;16.10;;;;;;;-0.20;79.41;93875.50;2054922;70;20146;-86
2023/12/19 08:32:29;;;;;;;34.63;16.80;;;;;;;-0.13;79.62;93877.72;2054963;69;20138;-82
2023/12/19 08:34:56;;;;;;;39.33;19.23;;;;;;;-0.18;79.94;93867.44;2054873;69;20153;-86
2023/12/19 08:37:22;;;;;;;39.25;17.60;;;;;;;0.01;79.26;93862.03;2054892;69;20153;-85
2023/12/19 08:39:54;;;;;;;37.83;19.55;;;;;;;-0.01;78.88;93865.28;2055042;69;20580;-87
2023/12/19 08:42:21;;;;;;;39.58;19.67;;;;;;;-0.08;79.04;93857.56;2051861;70;20620;-84
2023/12/19 08:44:47;;;;;;;34.35;18.10;;;;;;;0.02;78.68;93843.41;2054800;69;20141;-84
2023/12/19 08:47:13;;;;;;;44.75;21.38;;;;;;;0.05;78.52;93839.59;2054862;69;20146;-87
2023/12/19 08:49:43;;;;;;;42.15;22.25;;;;;;;0.12;78.59;93836.28;2054334;70;20149;-87
2023/12/19 08:52:12;;;;;;;30.92;17.10;;;;;;;0.13;78.53;93827.44;2054718;70;20185;-86
2023/12/19 08:54:38;;;;;;;28.95;16.00;;;;;;;0.28;79.20;93827.09;2054780;70;20245;-85
2023/12/19 08:57:04;;;;;;;31.45;16.83;;;;;;;0.75;79.98;93819.31;2054864;69;20146;-83
2023/12/19 08:59:31;;;;;;;32.92;15.63;;;;;;;1.22;80.10;93819.03;2054746;70;20605;-87
2023/12/19 09:01:57;;;;;;;26.50;15.77;;;;;;;1.21;79.69;93828.63;2054192;70;20154;-86
2023/12/19 09:04:24;;;;;;;39.42;19.77;;;;;;;1.69;80.63;93834.59;2056991;69;20642;-81
2023/12/19 09:06:50;;;;;;;35.63;17.58;;;;;;;2.09;79.97;93826.44;2054628;70;20661;-83
2023/12/19 09:09:16;;;;;;;31.27;17.38;;;;;;;2.38;78.91;93828.25;2054587;70;20134;-82
2023/12/19 09:11:42;;;;;;;36.72;19.15;;;;;;;2.24;77.62;93830.22;2054536;70;20668;-84
2023/12/19 09:14:11;;;;;;;32.65;18.40;;;;;;;2.67;77.86;93828.53;2056914;69;20146;-83
2023/12/19 09:16:37;;;;;;;35.92;18.45;;;;;;;3.03;76.74;93823.34;2054628;70;20146;-83
2023/12/19 09:19:04;;;;;;;26.67;13.45;;;;;;;3.45;75.93;93821.47;2054627;70;20138;-85
2023/12/19 09:21:31;;;;;;;19.58;11.13;;;;;;;3.77;73.33;93803.84;2054531;69;20152;-83
2023/12/19 09:23:56;;;;;;;25.10;13.10;;;;;;;4.32;75.12;93798.28;2054477;69;20126;-82
2023/12/19 09:26:22;;;;;;;43.80;23.90;;;;;;;4.27;73.26;93799.16;2054726;70;20146;-82
2023/12/19 09:28:48;;;;;;;63.63;34.90;;;;;;;3.91;72.83;93746.06;2054680;70;20535;-81
2023/12/19 09:31:13;;;;;;;45.58;25.88;;;;;;;4.45;71.80;93800.25;2054610;69;20530;-81
2023/12/19 09:33:40;;;;;;;31.35;19.33;;;;;;;4.43;71.23;93786.84;2055145;70;20593;-84
2023/12/19 09:36:09;;;;;;;20.83;13.13;;;;;;;4.65;70.56;93787.59;2055228;70;20607;-83
2023/12/19 09:38:37;;;;;;;20.08;11.35;;;;;;;5.01;68.96;93784.88;2054180;70;20628;-81
2023/12/19 09:41:04;;;;;;;24.10;14.10;;;;;;;5.51;69.15;93768.75;2054654;70;20177;-82
2023/12/19 09:43:32;;;;;;;27.08;16.10;;;;;;;5.94;69.79;93767.97;2054843;70;20214;-82
2023/12/19 09:46:04;;;;;;;25.73;16.33;;;;;;;6.33;67.65;93758.38;2056917;69;20153;-82
2023/12/19 09:48:35;;;;;;;22.65;12.38;;;;;;;6.55;66.69;93756.91;2054814;70;20233;-83
2023/12/19 09:51:03;;;;;;;21.08;11.40;;;;;;;6.71;64.95;93757.63;2054053;70;20580;-82
2023/12/19 09:53:33;;;;;;;17.95;9.63;;;;;;;6.38;65.32;93761.53;2054326;70;20146;-82
2023/12/19 09:56:00;;;;;;;19.13;11.80;;;;;;;6.72;63.77;93758.38;2054492;69;20162;-81
2023/12/19 09:58:31;;;;;;;18.58;10.65;;;;;;;6.36;63.94;93753.69;2054559;70;20137;-81
2023/12/19 10:00:59;;;;;;;17.30;9.85;;;;;;;6.95;63.41;93755.56;2054530;70;20146;-84
2023/12/19 10:03:27;;;;;;;16.17;8.95;;;;;;;7.26;62.29;93754.19;2054417;69;20225;-83
2023/12/19 10:05:56;;;;;;;16.35;9.63;;;;;;;7.71;61.44;93735.72;2054586;69;20173;-81
2023/12/19 10:08:22;;;;;;;26.90;11.95;;;;;;;8.26;61.45;93729.25;2054662;69;20149;-83
2023/12/19 10:10:51;;;;;;;14.57;8.80;;;;;;;8.31;58.72;93739.50;2056755;69;20146;-81
2023/12/19 10:13:27;;;;;;;11.85;7.55;;;;;;;8.17;59.21;93735.47;2054763;69;20177;-85
2023/12/19 10:16:06;;;;;;;16.23;8.98;;;;;;;8.52;59.17;93727.97;2054817;70;20175;-85
2023/12/19 10:18:33;;;;;;;16.95;8.88;;;;;;;9.23;58.18;93718.34;2056907;69;20145;-83
2023/12/19 10:21:11;;;;;;;17.25;10.43;;;;;;;9.66;57.61;93716.88;2053987;70;20521;-85
2023/12/19 10:23:38;;;;;;;13.80;8.10;;;;;;;10.61;55.52;93703.22;2054300;70;20154;-84
2023/12/19 10:26:05;;;;;;;10.38;5.82;;;;;;;11.12;51.78;93690.88;2054481;69;20174;-82
2023/12/19 10:28:32;;;;;;;9.35;5.72;;;;;;;11.23;52.07;93683.94;2054390;69;20150;-84
2023/12/19 10:31:06;;;;;;;16.58;8.75;;;;;;;11.14;51.37;93681.84;2054325;69;20208;-85
2023/12/19 10:33:48;;;;;;;11.50;5.47;;;;;;;11.54;49.69;93674.88;2054477;69;20157;-84
2023/12/19 10:36:29;;;;;;;8.60;5.43;;;;;;;12.61;48.78;93664.09;2056580;69;20177;-82
2023/12/19 10:39:05;;;;;;;9.88;4.80;;;;;;;13.41;47.25;93653.19;2054229;69;20150;-84
2023/12/19 10:41:32;;;;;;;7.53;4.95;;;;;;;13.75;47.43;93643.38;2054502;69;20645;-83
2023/12/19 10:44:00;;;;;;;6.93;4.60;;;;;;;14.39;45.91;93643.13;2054320;69;20202;-83
2023/12/19 10:46:31;;;;;;;6.88;4.53;;;;;;;14.20;45.37;93632.00;2053996;70;20225;-81
2023/12/19 10:48:59;;;;;;;8.95;5.20;;;;;;;15.17;45.27;93625.84;2054346;69;20153;-81
2023/12/19 10:51:41;;;;;;;13.25;5.63;;;;;;;14.32;45.32;93626.38;2056557;69;20153;-80
2023/12/19 10:54:14;;;;;;;14.77;5.83;;;;;;;14.48;44.52;93619.63;2053666;70;20213;-77
2023/12/19 10:57:08;;;;;;;8.23;4.13;;;;;;;16.26;42.66;93612.78;2053828;70;20154;-80
2023/12/19 11:00:00;;;;;;;7.43;3.58;;;;;;;18.26;39.63;93612.25;2057136;69;20625;-81
2023/12/19 11:02:37;;;;;;;11.25;6.00;;;;;;;17.91;37.75;93603.44;2054216;69;20142;-81
2023/12/19 11:05:09;;;;;;;94.20;52.38;;;;;;;15.74;38.93;93602.84;2054880;69;20245;-84
2023/12/19 11:07:35;;;;;;;28.90;20.60;;;;;;;13.04;43.44;93582.91;2054945;70;20581;-80
2023/12/19 11:10:07;;;;;;;22.48;14.23;;;;;;;12.10;44.46;93587.91;2054688;69;20223;-79
2023/12/19 11:12:33;;;;;;;18.38;12.18;;;;;;;11.33;44.83;93571.91;2054372;69;20558;-80
2023/12/19 11:15:00;;;;;;;21.33;13.88;;;;;;;11.13;46.48;93568.38;2054555;69;20620;-80
2023/12/19 11:17:35;;;;;;;18.67;12.02;;;;;;;10.52;46.83;93557.53;2054801;70;20162;-80
2023/12/19 11:20:24;;;;;;;16.02;9.82;;;;;;;10.00;48.05;93555.00;2054853;69;20157;-81
2023/12/19 11:23:15;;;;;;;17.08;9.73;;;;;;;9.70;49.49;93556.94;2054723;70;20609;-81
2023/12/19 11:25:50;;;;;;;14.88;9.00;;;;;;;9.32;50.63;93544.19;2054810;69;20146;-80
2023/12/19 11:28:16;;;;;;;20.35;10.43;;;;;;;9.12;50.77;93536.97;2054353;70;20588;-84
2023/12/19 11:30:41;;;;;;;40.28;26.85;;;;;;;8.94;50.91;93539.06;2057011;69;20228;-81
2023/12/19 11:33:11;;;;;;;24.27;15.35;;;;;;;8.14;52.38;93526.97;2054278;69;20142;-80
2023/12/19 11:35:38;;;;;;;15.88;8.45;;;;;;;7.89;53.91;93527.03;2054878;69;20601;-82